Mercury Ace — 3FNS7 — position and weather

sailwx.info

Track history (hours):
 
Tides and Currents Weather Stations Pressure Air Temp Water Temp Dewpoint Dewpoint Depression Visibility Wind Speed Wind Dir Waves Ship Positions

Mercury Ace

Last reported at 2018-Feb-11 02:12 UTC. Time now 2018-Feb-21 07:15 UTC.
Position S 24°08' W 046°24'.
Warning: this ship's position is 10 days out of date.

Length 199 m; draft 8.6 m.

Type: Ship. MMSI: 370644000.

Date/timePositionNaut miles runAvg speedWind from/ knotsBaromVisibWave heightAir tempDewpointWater temp
2018-Feb-11 02:12S 24°08' W 046°24'515.2
2018-Feb-11 01:55S 24°04' W 046°22'410.2
2018-Feb-11 01:30S 24°00' W 046°20'3 6.4
2018-Feb-11 01:00S 23°58' W 046°18'1 1.3
2018-Feb-11 00:29S 23°58' W 046°18'0 0.0
2018-Feb-10 23:59S 23°58' W 046°18'0 0.0
2018-Feb-10 23:29S 23°58' W 046°18'0 0.0
2018-Feb-10 22:59S 23°58' W 046°18'0 0.0
2018-Feb-10 15:29S 23°58' W 046°18'0 0.0
2018-Feb-10 14:59S 23°58' W 046°18'0 0.0
2018-Feb-10 14:29S 23°58' W 046°18'0 0.0
2018-Feb-10 13:59S 23°58' W 046°18'0 0.0
2018-Feb-10 13:29S 23°58' W 046°18'0 0.0
2018-Feb-10 12:59S 23°58' W 046°18'0 0.0
2018-Feb-10 12:29S 23°58' W 046°18'0 0.0
2018-Feb-10 11:59S 23°58' W 046°18'0 0.0
2018-Feb-10 11:29S 23°58' W 046°18'0 0.0
2018-Feb-10 10:53S 23°58' W 046°18'0 0.0
2018-Feb-10 10:29S 23°58' W 046°18'0 0.0
2018-Feb-10 09:59S 23°58' W 046°18'0 0.0
2018-Feb-10 09:29S 23°58' W 046°18'0 0.0
2018-Feb-10 08:59S 23°58' W 046°18'0 0.0
2018-Feb-10 08:29S 23°58' W 046°18'0 0.0
2018-Feb-10 07:53S 23°58' W 046°18'0 0.0
2018-Feb-10 07:29S 23°58' W 046°18'0 0.0
2018-Feb-10 06:59S 23°58' W 046°18'0 0.0
2018-Feb-10 06:29S 23°58' W 046°18'0 0.0
2018-Feb-10 05:59S 23°58' W 046°18'0 0.0
2018-Feb-10 05:29S 23°58' W 046°18'0 0.0
2018-Feb-10 04:59S 23°58' W 046°18'0 0.0
2018-Feb-10 04:29S 23°58' W 046°18'0 0.0
2018-Feb-10 04:00S 23°58' W 046°18'2 3.0
2018-Feb-10 03:30S 23°59' W 046°17'4 7.8
2018-Feb-10 03:00S 24°01' W 046°21'2 4.3
2018-Feb-10 02:26S 24°03' W 046°22'3 5.8
2018-Feb-10 02:00S 24°06' W 046°23'4212.6
2018-Feb-09 22:42S 24°35' W 045°50'  
Track history (hours):
 
Tides and Currents Weather Stations Pressure Air Temp Water Temp Dewpoint Dewpoint Depression Visibility Wind Speed Wind Dir Waves Ship Positions

Mercury Ace

Last reported at 2018-Feb-11 02:12 UTC. Time now 2018-Feb-21 07:15 UTC.
Position S 24°08' W 046°24'.
Warning: this ship's position is 10 days out of date.

Length 199 m; draft 8.6 m.

Type: Ship. MMSI: 370644000.

Date/timePositionNaut miles runAvg speedWind from/ knotsBaromVisibWave heightAir tempDewpointWater temp
2018-Feb-11 02:12S 24°08' W 046°24'515.2
2018-Feb-11 01:55S 24°04' W 046°22'410.2
2018-Feb-11 01:30S 24°00' W 046°20'3 6.4
2018-Feb-11 01:00S 23°58' W 046°18'1 1.3
2018-Feb-11 00:29S 23°58' W 046°18'0 0.0
2018-Feb-10 23:59S 23°58' W 046°18'0 0.0
2018-Feb-10 23:29S 23°58' W 046°18'0 0.0
2018-Feb-10 22:59S 23°58' W 046°18'0 0.0
2018-Feb-10 15:29S 23°58' W 046°18'0 0.0
2018-Feb-10 14:59S 23°58' W 046°18'0 0.0
2018-Feb-10 14:29S 23°58' W 046°18'0 0.0
2018-Feb-10 13:59S 23°58' W 046°18'0 0.0
2018-Feb-10 13:29S 23°58' W 046°18'0 0.0
2018-Feb-10 12:59S 23°58' W 046°18'0 0.0
2018-Feb-10 12:29S 23°58' W 046°18'0 0.0
2018-Feb-10 11:59S 23°58' W 046°18'0 0.0
2018-Feb-10 11:29S 23°58' W 046°18'0 0.0
2018-Feb-10 10:53S 23°58' W 046°18'0 0.0
2018-Feb-10 10:29S 23°58' W 046°18'0 0.0
2018-Feb-10 09:59S 23°58' W 046°18'0 0.0
2018-Feb-10 09:29S 23°58' W 046°18'0 0.0
2018-Feb-10 08:59S 23°58' W 046°18'0 0.0
2018-Feb-10 08:29S 23°58' W 046°18'0 0.0
2018-Feb-10 07:53S 23°58' W 046°18'0 0.0
2018-Feb-10 07:29S 23°58' W 046°18'0 0.0
2018-Feb-10 06:59S 23°58' W 046°18'0 0.0
2018-Feb-10 06:29S 23°58' W 046°18'0 0.0
2018-Feb-10 05:59S 23°58' W 046°18'0 0.0
2018-Feb-10 05:29S 23°58' W 046°18'0 0.0
2018-Feb-10 04:59S 23°58' W 046°18'0 0.0
2018-Feb-10 04:29S 23°58' W 046°18'0 0.0
2018-Feb-10 04:00S 23°58' W 046°18'2 3.0
2018-Feb-10 03:30S 23°59' W 046°17'4 7.8
2018-Feb-10 03:00S 24°01' W 046°21'2 4.3
2018-Feb-10 02:26S 24°03' W 046°22'3 5.8
2018-Feb-10 02:00S 24°06' W 046°23'4212.6
2018-Feb-09 22:42S 24°35' W 045°50'  

Dump ship's entire track history